Sedro Woolley, Washington
Current Conditions -  °F | °C
As of 11:15 AM on Monday 20 Oct 2014 (Local Time) from KBVS Reporting Station
Overcast Overcast  
Wind Chill: 61°   Ceiling: 2000
Heat Index: 61°   Visibility: 10mi
Dew Point: 61°   Wind: 10mph
Humidity: 100%   Direction: 180°S
Pressure: 29.75"   Gusts: 16mph
Location:  48.54°N, 122.19°W
Report Text: KBVS 201815Z AUTO 18009G14KT 10SM BKN020 OVC026 16/16 A2975 RMK A01 P000
Loading
Personal Weather Stations






























Interactive Weather Map
Tropical Storm Tracking
New forecast layout! Learn more

10-Day Weather Forecast

Advertisements
Track Severe Weather on mobile